createdAt,value
2023-05-01T00:00:54.226Z,6.82
2023-05-01T00:01:54.224Z,6.79
2023-05-01T00:02:54.317Z,6.75
2023-05-01T00:03:54.492Z,6.71
2023-05-01T00:04:54.165Z,6.69
2023-05-01T00:05:54.235Z,6.66
2023-05-01T00:06:54.183Z,6.64
2023-05-01T00:07:54.172Z,6.61
2023-05-01T00:08:54.119Z,6.57
2023-05-01T00:10:54.089Z,6.49
2023-05-01T00:11:54.152Z,6.45
2023-05-01T00:12:54.035Z,6.42
2023-05-01T00:13:54.097Z,6.38
2023-05-01T00:14:54.013Z,6.35
2023-05-01T00:15:54.186Z,6.34
2023-05-01T00:16:54.065Z,6.33
2023-05-01T00:17:54.144Z,6.32
2023-05-01T00:18:54.033Z,6.29
2023-05-01T00:19:54.380Z,6.25
2023-05-01T00:20:53.945Z,6.24
2023-05-01T00:21:53.960Z,6.23
2023-05-01T00:22:53.916Z,6.26
2023-05-01T00:23:55.047Z,6.28
2023-05-01T00:24:53.886Z,6.30
2023-05-01T00:25:54.001Z,6.29
2023-05-01T00:26:53.856Z,6.27
2023-05-01T00:27:53.891Z,6.24
2023-05-01T00:28:53.843Z,6.22
2023-05-01T00:29:54.189Z,6.22
2023-05-01T00:30:53.803Z,6.22
2023-05-01T00:31:53.869Z,6.20
2023-05-01T00:32:53.860Z,6.20
2023-05-01T00:33:53.842Z,6.17
2023-05-01T00:34:53.760Z,6.15
2023-05-01T00:35:53.806Z,6.11
2023-05-01T00:36:53.733Z,6.07
2023-05-01T00:37:53.781Z,6.03
2023-05-01T00:38:53.713Z,5.97
2023-05-01T00:39:53.971Z,5.95
2023-05-01T00:40:53.683Z,5.94
2023-05-01T00:41:53.766Z,5.95
2023-05-01T00:42:53.658Z,5.98
2023-05-01T00:43:53.712Z,5.99
2023-05-01T00:44:53.654Z,6.02
2023-05-01T00:45:53.736Z,6.02
2023-05-01T00:46:53.606Z,6.03
2023-05-01T00:47:53.763Z,6.04
2023-05-01T00:48:53.595Z,6.04
2023-05-01T00:49:53.870Z,6.02
2023-05-01T00:50:53.557Z,5.97
2023-05-01T00:51:53.568Z,5.93
2023-05-01T00:52:53.524Z,5.92
2023-05-01T00:53:53.636Z,5.90
2023-05-01T00:54:53.504Z,5.88
2023-05-01T00:55:55.583Z,5.87
2023-05-01T00:56:53.479Z,5.83
2023-05-01T00:57:53.496Z,5.82
2023-05-01T00:58:53.448Z,5.82
2023-05-01T00:59:53.537Z,5.79
2023-05-01T01:00:53.470Z,5.74
2023-05-01T01:01:55.640Z,5.70
2023-05-01T01:02:53.469Z,5.68
2023-05-01T01:03:55.618Z,5.66
2023-05-01T01:04:53.411Z,5.65
2023-05-01T01:05:53.449Z,5.65
2023-05-01T01:06:53.347Z,5.64
2023-05-01T01:07:53.369Z,5.64
2023-05-01T01:08:53.308Z,5.63
2023-05-01T01:09:53.493Z,5.62
2023-05-01T01:10:53.299Z,5.62
2023-05-01T01:11:53.366Z,5.63
2023-05-01T01:12:53.252Z,5.63
2023-05-01T01:13:53.325Z,5.64
2023-05-01T01:14:53.237Z,5.64
2023-05-01T01:15:53.324Z,5.66
2023-05-01T01:16:53.260Z,5.66
2023-05-01T01:17:53.324Z,5.66
2023-05-01T01:18:53.183Z,5.67
2023-05-01T01:19:53.506Z,5.66
2023-05-01T01:20:53.167Z,5.63
2023-05-01T01:21:53.163Z,5.62
2023-05-01T01:22:53.126Z,5.58
2023-05-01T01:23:53.236Z,5.54
2023-05-01T01:24:53.108Z,5.51
2023-05-01T01:25:55.196Z,5.49
2023-05-01T01:26:53.071Z,5.46
2023-05-01T01:27:53.100Z,5.44
2023-05-01T01:28:53.063Z,5.41
2023-05-01T01:29:53.200Z,5.39
2023-05-01T01:30:53.041Z,5.39
2023-05-01T01:31:53.031Z,5.39
2023-05-01T01:32:53.034Z,5.39
2023-05-01T01:33:53.040Z,5.37
2023-05-01T01:34:52.959Z,5.34
2023-05-01T01:35:53.012Z,5.31
2023-05-01T01:36:52.940Z,5.26
2023-05-01T01:37:52.989Z,5.22
2023-05-01T01:38:52.935Z,5.18
2023-05-01T01:39:54.437Z,5.13
2023-05-01T01:40:52.883Z,5.11
2023-05-01T01:41:52.968Z,5.11
2023-05-01T01:42:52.887Z,5.10
2023-05-01T01:43:52.934Z,5.11
2023-05-01T01:44:52.865Z,5.12
2023-05-01T01:45:52.990Z,5.13
2023-05-01T01:46:52.811Z,5.12
2023-05-01T01:47:52.957Z,5.11
2023-05-01T01:48:52.877Z,5.09
2023-05-01T01:49:52.954Z,5.08
2023-05-01T01:50:52.761Z,5.08
2023-05-01T01:51:52.773Z,5.08
2023-05-01T01:52:52.750Z,5.08
2023-05-01T01:53:53.856Z,5.09
2023-05-01T01:54:52.723Z,5.08
2023-05-01T01:55:52.799Z,5.08
2023-05-01T01:56:52.680Z,5.05
2023-05-01T01:57:52.734Z,5.04
2023-05-01T01:58:52.657Z,5.02
2023-05-01T01:59:52.830Z,4.98
2023-05-01T02:00:52.620Z,4.93
2023-05-01T02:01:52.668Z,4.89
2023-05-01T02:02:52.782Z,4.87
2023-05-01T02:03:52.706Z,4.83
2023-05-01T02:04:52.589Z,4.83
2023-05-01T02:05:52.621Z,4.83
2023-05-01T02:06:52.657Z,4.84
2023-05-01T02:07:52.596Z,4.86
2023-05-01T02:08:52.535Z,4.87
2023-05-01T02:09:54.974Z,4.85
2023-05-01T02:10:52.513Z,4.84
2023-05-01T02:11:52.581Z,4.85
2023-05-01T02:12:52.493Z,4.83
2023-05-01T02:13:54.617Z,4.84
2023-05-01T02:14:52.454Z,4.82
2023-05-01T02:15:52.547Z,4.81
2023-05-01T02:16:52.430Z,4.78
2023-05-01T02:17:52.665Z,4.75
2023-05-01T02:18:52.398Z,4.74
2023-05-01T02:19:52.456Z,4.73
2023-05-01T02:20:52.372Z,4.73
2023-05-01T02:21:52.394Z,4.71
2023-05-01T02:22:52.422Z,4.71
2023-05-01T02:23:52.459Z,4.71
2023-05-01T02:24:52.324Z,4.70
2023-05-01T02:25:52.426Z,4.71
2023-05-01T02:26:52.328Z,4.74
2023-05-01T02:27:52.322Z,4.76
2023-05-01T02:28:52.274Z,4.75
2023-05-01T02:29:52.394Z,4.73
2023-05-01T02:30:52.240Z,4.73
2023-05-01T02:31:53.309Z,4.72
2023-05-01T02:32:52.276Z,4.72
2023-05-01T02:33:52.303Z,4.74
2023-05-01T02:34:52.202Z,4.75
2023-05-01T02:35:52.219Z,4.74
2023-05-01T02:36:52.175Z,4.72
2023-05-01T02:37:52.183Z,4.68
2023-05-01T02:38:52.153Z,4.65
2023-05-01T02:39:52.201Z,4.62
2023-05-01T02:40:52.115Z,4.60
2023-05-01T02:41:52.226Z,4.62
2023-05-01T02:42:52.069Z,4.63
2023-05-01T02:43:52.131Z,4.65
2023-05-01T02:44:52.051Z,4.66
2023-05-01T02:45:53.214Z,4.68
2023-05-01T02:46:52.064Z,4.71
2023-05-01T02:47:52.133Z,4.74
2023-05-01T02:48:52.120Z,4.78
2023-05-01T02:49:52.240Z,4.79
2023-05-01T02:50:52.128Z,4.78
2023-05-01T02:51:52.014Z,4.74
2023-05-01T02:52:51.956Z,4.71
2023-05-01T02:53:52.051Z,4.68
2023-05-01T02:54:51.917Z,4.64
2023-05-01T02:55:52.031Z,4.58
2023-05-01T02:56:52.009Z,4.51
2023-05-01T02:57:52.002Z,4.44
2023-05-01T02:58:51.873Z,4.39
2023-05-01T02:59:51.988Z,4.33
2023-05-01T03:00:51.919Z,4.28
2023-05-01T03:01:51.956Z,4.25
2023-05-01T03:02:51.835Z,4.25
2023-05-01T03:03:51.899Z,4.27
2023-05-01T03:04:51.787Z,4.27
2023-05-01T03:05:51.856Z,4.28
2023-05-01T03:06:51.934Z,4.30
2023-05-01T03:07:52.832Z,4.31
2023-05-01T03:08:51.741Z,4.32
2023-05-01T03:09:51.820Z,4.31
2023-05-01T03:10:51.716Z,4.30
2023-05-01T03:11:51.773Z,4.29
2023-05-01T03:12:51.694Z,4.29
2023-05-01T03:13:51.742Z,4.27
2023-05-01T03:14:51.655Z,4.28
2023-05-01T03:15:51.857Z,4.28
2023-05-01T03:16:51.697Z,4.29
2023-05-01T03:17:51.789Z,4.30
2023-05-01T03:18:51.617Z,4.29
2023-05-01T03:19:51.697Z,4.27
2023-05-01T03:20:51.579Z,4.25
2023-05-01T03:21:51.584Z,4.22
2023-05-01T03:22:51.569Z,4.18
2023-05-01T03:23:52.689Z,4.14
2023-05-01T03:24:51.535Z,4.09
2023-05-01T03:25:51.631Z,4.04
2023-05-01T03:26:51.513Z,4.04
2023-05-01T03:27:53.111Z,4.06
2023-05-01T03:28:51.674Z,4.09
2023-05-01T03:29:51.603Z,4.13
2023-05-01T03:30:51.464Z,4.16
2023-05-01T03:31:51.497Z,4.17
2023-05-01T03:32:51.483Z,4.16
2023-05-01T03:33:51.463Z,4.15
2023-05-01T03:34:51.414Z,4.14
2023-05-01T03:35:51.451Z,4.10
2023-05-01T03:36:51.380Z,4.07
2023-05-01T03:37:51.418Z,4.06
2023-05-01T03:38:51.364Z,4.07
2023-05-01T03:39:51.408Z,4.10
2023-05-01T03:40:51.308Z,4.12
2023-05-01T03:41:51.394Z,4.14
2023-05-01T03:42:51.289Z,4.14
2023-05-01T03:43:51.336Z,4.13
2023-05-01T03:44:51.264Z,4.12
2023-05-01T03:45:51.455Z,4.09
2023-05-01T03:46:51.273Z,4.07
2023-05-01T03:47:51.386Z,4.06
2023-05-01T03:48:51.246Z,4.03
2023-05-01T03:49:51.297Z,4.01
2023-05-01T03:50:51.205Z,3.98
2023-05-01T03:51:51.194Z,3.98
2023-05-01T03:52:51.166Z,4.00
2023-05-01T03:53:51.309Z,4.01
2023-05-01T03:54:51.156Z,4.04
2023-05-01T03:55:52.149Z,4.04
2023-05-01T03:56:51.117Z,4.04
2023-05-01T03:57:51.122Z,4.05
2023-05-01T03:58:51.094Z,4.07
2023-05-01T03:59:52.133Z,4.09
2023-05-01T04:00:51.086Z,4.10
2023-05-01T04:01:51.079Z,4.12
2023-05-01T04:02:51.294Z,4.13
2023-05-01T04:03:52.282Z,4.15
2023-05-01T04:04:51.003Z,4.13
2023-05-01T04:05:51.062Z,4.14
2023-05-01T04:06:51.139Z,4.15
2023-05-01T04:07:51.005Z,4.17
2023-05-01T04:08:51.162Z,4.19
2023-05-01T04:09:51.016Z,4.25
2023-05-01T04:10:51.086Z,4.28
2023-05-01T04:11:53.041Z,4.31
2023-05-01T04:12:50.902Z,4.34
2023-05-01T04:13:50.968Z,4.36
2023-05-01T04:14:50.882Z,4.38
2023-05-01T04:15:50.987Z,4.39
2023-05-01T04:16:50.858Z,4.40
2023-05-01T04:17:50.954Z,4.39
2023-05-01T04:18:50.823Z,4.36
2023-05-01T04:19:51.909Z,4.33
2023-05-01T04:20:50.794Z,4.29
2023-05-01T04:21:50.882Z,4.26
2023-05-01T04:22:50.782Z,4.26
2023-05-01T04:23:52.815Z,4.27
2023-05-01T04:24:50.750Z,4.31
2023-05-01T04:25:50.820Z,4.36
2023-05-01T04:26:50.757Z,4.41
2023-05-01T04:27:52.849Z,4.43
2023-05-01T04:28:50.763Z,4.46
2023-05-01T04:29:50.822Z,4.50
2023-05-01T04:30:50.656Z,4.56
2023-05-01T04:31:51.737Z,4.61
2023-05-01T04:32:50.723Z,4.63
2023-05-01T04:33:50.670Z,4.65
2023-05-01T04:34:50.604Z,4.66
2023-05-01T04:35:51.713Z,4.67
2023-05-01T04:36:50.573Z,4.65
2023-05-01T04:39:25.957Z,4.23
2023-05-01T04:40:04.834Z,4.23
2023-05-01T04:41:04.917Z,4.48
2023-05-01T04:42:04.849Z,4.63
2023-05-01T04:43:04.890Z,4.71
2023-05-01T04:44:04.803Z,4.77
2023-05-01T04:45:05.805Z,4.82
2023-05-01T04:46:04.819Z,4.85
2023-05-01T04:47:04.868Z,4.85
2023-05-01T04:48:04.807Z,4.85
2023-05-01T04:49:04.850Z,4.85
2023-05-01T04:50:04.699Z,4.86
2023-05-01T04:51:04.747Z,4.89
2023-05-01T04:52:04.671Z,4.92
2023-05-01T04:53:04.794Z,4.97
2023-05-01T04:54:04.665Z,5.03
2023-05-01T04:55:04.656Z,5.08
2023-05-01T04:56:04.621Z,5.11
2023-05-01T04:57:04.669Z,5.14
2023-05-01T04:58:04.630Z,5.17
2023-05-01T04:59:05.681Z,5.20
2023-05-01T05:00:04.577Z,5.22
2023-05-01T05:01:04.614Z,5.25
2023-05-01T05:02:04.557Z,5.28
2023-05-01T05:03:05.731Z,5.31
2023-05-01T05:04:04.583Z,5.33
2023-05-01T05:05:04.576Z,5.36
2023-05-01T05:06:04.552Z,5.40
2023-05-01T05:07:04.546Z,5.45
2023-05-01T05:08:04.464Z,5.54
2023-05-01T05:09:04.546Z,5.64
2023-05-01T05:10:04.452Z,5.75
2023-05-01T05:11:04.524Z,5.84
2023-05-01T05:12:04.405Z,5.93
2023-05-01T05:13:06.473Z,6.01
2023-05-01T05:14:04.393Z,6.06
2023-05-01T05:15:04.393Z,6.09
2023-05-01T05:16:04.414Z,6.13
2023-05-01T05:17:04.455Z,6.16
2023-05-01T05:18:04.339Z,6.18
2023-05-01T05:19:05.387Z,6.21
2023-05-01T05:20:04.315Z,6.24
2023-05-01T05:21:04.326Z,6.27
2023-05-01T05:22:04.323Z,6.30
2023-05-01T05:23:04.405Z,6.34
2023-05-01T05:24:04.253Z,6.40
2023-05-01T05:25:04.463Z,6.46
2023-05-01T05:26:04.229Z,6.54
2023-05-01T05:27:04.259Z,6.61
2023-05-01T05:28:04.212Z,6.68
2023-05-01T05:29:04.241Z,6.76
2023-05-01T05:30:04.167Z,6.81
2023-05-01T05:31:04.190Z,6.85
2023-05-01T05:32:04.191Z,6.89
2023-05-01T05:33:04.245Z,6.92
2023-05-01T05:34:04.113Z,6.98
2023-05-01T05:35:04.176Z,7.02
2023-05-01T05:36:04.098Z,7.08
2023-05-01T05:37:04.137Z,7.14
2023-05-01T05:38:04.073Z,7.21
2023-05-01T05:39:04.191Z,7.25
2023-05-01T05:40:04.036Z,7.29
2023-05-01T05:41:04.123Z,7.33
2023-05-01T05:42:04.004Z,7.36
2023-05-01T05:43:05.123Z,7.42
2023-05-01T05:44:04.035Z,7.47
2023-05-01T05:45:03.996Z,7.52
2023-05-01T05:46:03.970Z,7.57
2023-05-01T05:47:04.075Z,7.61
2023-05-01T05:48:03.972Z,7.66
2023-05-01T05:49:04.039Z,7.71
2023-05-01T05:50:03.911Z,7.74
2023-05-01T05:51:04.058Z,7.77
2023-05-01T05:52:03.877Z,7.78
2023-05-01T05:53:05.951Z,7.79
2023-05-01T05:54:03.859Z,7.82
2023-05-01T05:55:03.976Z,7.87
2023-05-01T05:56:03.834Z,7.93
2023-05-01T05:57:03.888Z,7.99
2023-05-01T05:58:03.840Z,8.02
2023-05-01T05:59:06.008Z,8.04
2023-05-01T06:00:03.797Z,8.07
2023-05-01T06:01:03.856Z,8.13
2023-05-01T06:02:03.856Z,8.22
2023-05-01T06:03:03.942Z,8.31
2023-05-01T06:04:03.794Z,8.39
2023-05-01T06:05:03.825Z,8.47
2023-05-01T06:06:03.829Z,8.53
2023-05-01T06:07:03.799Z,8.57
2023-05-01T06:08:03.727Z,8.59
2023-05-01T06:09:03.826Z,8.64
2023-05-01T06:10:03.639Z,8.69
2023-05-01T06:11:03.725Z,8.74
2023-05-01T06:12:03.645Z,8.79
2023-05-01T06:13:13.943Z,8.83
2023-05-01T06:14:04.568Z,8.84
2023-05-01T06:15:03.600Z,8.87
2023-05-01T06:16:03.640Z,8.89
2023-05-01T06:17:03.674Z,8.91
2023-05-01T06:18:03.640Z,8.92
2023-05-01T06:19:03.645Z,8.93
2023-05-01T06:20:03.549Z,8.94
2023-05-01T06:21:03.536Z,8.97
2023-05-01T06:22:03.479Z,8.99
2023-05-01T06:23:03.606Z,9.02
2023-05-01T06:24:03.470Z,9.06
2023-05-01T06:25:04.498Z,9.12
2023-05-01T06:26:03.446Z,9.18
2023-05-01T06:27:03.500Z,9.23
2023-05-01T06:28:03.477Z,9.29
2023-05-01T06:29:03.456Z,9.35
2023-05-01T06:30:03.376Z,9.39
2023-05-01T06:31:03.488Z,9.40
2023-05-01T06:32:03.334Z,9.40
2023-05-01T06:33:03.514Z,9.42
2023-05-01T06:34:03.322Z,9.44
2023-05-01T06:35:03.414Z,9.47
2023-05-01T06:36:03.338Z,9.50
2023-05-01T06:37:03.345Z,9.53
2023-05-01T06:38:03.259Z,9.55
2023-05-01T06:39:03.263Z,9.57
2023-05-01T06:40:03.251Z,9.60
2023-05-01T06:41:03.336Z,9.63
2023-05-01T06:42:03.230Z,9.66
2023-05-01T06:43:03.304Z,9.70
2023-05-01T06:44:03.179Z,9.75
2023-05-01T06:45:03.192Z,9.80
2023-05-01T06:46:03.218Z,9.85
2023-05-01T06:47:03.312Z,9.92
2023-05-01T06:48:03.166Z,9.99
2023-05-01T06:49:03.155Z,10.06
2023-05-01T06:50:05.252Z,10.13
2023-05-01T06:51:04.226Z,10.20
2023-05-01T06:52:03.070Z,10.26
2023-05-01T06:53:03.315Z,10.32
2023-05-01T06:54:03.083Z,10.38
2023-05-01T06:55:03.083Z,10.42
2023-05-01T06:56:03.038Z,10.45
2023-05-01T06:57:03.077Z,10.47
2023-05-01T06:58:09.793Z,10.51
2023-05-01T06:59:04.009Z,10.55
2023-05-01T07:00:02.984Z,10.62
2023-05-01T07:01:03.019Z,10.67
2023-05-01T07:02:03.003Z,10.74
2023-05-01T07:03:03.079Z,10.82
2023-05-01T07:04:02.937Z,10.88
2023-05-01T07:05:03.024Z,10.94
2023-05-01T07:06:02.942Z,10.99
2023-05-01T07:07:05.146Z,11.03
2023-05-01T07:08:02.849Z,11.06
2023-05-01T07:09:03.897Z,11.09
2023-05-01T07:10:02.820Z,11.13
2023-05-01T07:11:02.942Z,11.15
2023-05-01T07:12:02.807Z,11.16
2023-05-01T07:13:02.885Z,11.18
2023-05-01T07:14:02.789Z,11.21
2023-05-01T07:15:02.836Z,11.26
2023-05-01T07:16:02.833Z,11.31
2023-05-01T07:17:02.898Z,11.32
2023-05-01T07:18:02.899Z,11.34
2023-05-01T07:19:02.768Z,11.36
2023-05-01T07:20:02.705Z,11.38
2023-05-01T07:21:02.779Z,11.44
2023-05-01T07:22:02.692Z,11.51
2023-05-01T07:23:03.526Z,11.58
2023-05-01T07:24:02.807Z,11.63
2023-05-01T07:25:02.684Z,11.66
2023-05-01T07:26:02.609Z,11.69
2023-05-01T07:27:02.691Z,11.75
2023-05-01T07:28:02.596Z,11.77
2023-05-01T07:29:02.664Z,11.79
2023-05-01T07:30:02.605Z,11.80
2023-05-01T07:31:02.654Z,11.80
2023-05-01T07:32:02.620Z,11.79
2023-05-01T07:33:02.734Z,11.79
2023-05-01T07:34:02.569Z,11.79
2023-05-01T07:35:02.603Z,11.80
2023-05-01T07:36:02.493Z,11.82
2023-05-01T07:37:02.577Z,11.84
2023-05-01T07:38:02.511Z,11.85
2023-05-01T07:39:02.519Z,11.85
2023-05-01T07:40:02.476Z,11.85
2023-05-01T07:41:02.591Z,11.84
2023-05-01T07:42:02.402Z,11.84
2023-05-01T07:43:02.514Z,11.85
2023-05-01T07:44:02.461Z,11.86
2023-05-01T07:45:02.408Z,11.88
2023-05-01T07:46:02.413Z,11.89
2023-05-01T07:47:02.422Z,11.90
2023-05-01T07:48:02.354Z,11.90
2023-05-01T07:49:02.347Z,11.91
2023-05-01T07:50:02.287Z,11.93
2023-05-01T07:51:02.347Z,11.95
2023-05-01T07:52:02.282Z,11.98
2023-05-01T07:53:02.390Z,12.01
2023-05-01T07:54:02.254Z,12.03
2023-05-01T07:55:02.288Z,12.05
2023-05-01T07:56:02.213Z,12.07
2023-05-01T07:57:02.299Z,12.09
2023-05-01T07:58:02.182Z,12.11
2023-05-01T07:59:02.305Z,12.15
2023-05-01T08:00:02.187Z,12.20
2023-05-01T08:01:02.234Z,12.26
2023-05-01T08:02:02.210Z,12.29
2023-05-01T08:03:02.347Z,12.31
2023-05-01T08:04:02.244Z,12.35
2023-05-01T08:05:02.286Z,12.38
2023-05-01T08:06:02.111Z,12.42
2023-05-01T08:07:02.186Z,12.46
2023-05-01T08:08:02.052Z,12.52
2023-05-01T08:09:02.064Z,12.56
2023-05-01T08:10:02.299Z,12.60
2023-05-01T08:11:02.165Z,12.63
2023-05-01T08:12:01.984Z,12.66
2023-05-01T08:13:03.023Z,12.70
2023-05-01T08:14:01.974Z,12.73
2023-05-01T08:15:02.080Z,12.77
2023-05-01T08:16:01.967Z,12.80
2023-05-01T08:17:02.120Z,12.87
2023-05-01T08:18:01.972Z,13.01
2023-05-01T08:19:01.941Z,13.21
2023-05-01T08:20:01.890Z,13.40
2023-05-01T08:21:01.966Z,13.56
2023-05-01T08:22:01.889Z,13.68
2023-05-01T08:23:01.928Z,13.79
2023-05-01T08:24:01.835Z,13.89
2023-05-01T08:25:01.882Z,14.01
2023-05-01T08:26:01.875Z,14.10
2023-05-01T08:27:01.892Z,14.15
2023-05-01T08:28:01.808Z,14.17
2023-05-01T08:29:01.856Z,14.16
2023-05-01T08:30:01.840Z,14.15
2023-05-01T08:31:01.890Z,14.24
2023-05-01T08:32:01.818Z,14.37
2023-05-01T08:33:01.796Z,14.49
2023-05-01T08:34:01.720Z,14.59
2023-05-01T08:35:01.805Z,14.64
2023-05-01T08:36:01.665Z,14.62
2023-05-01T08:37:01.777Z,14.58
2023-05-01T08:38:01.721Z,14.50
2023-05-01T08:39:01.703Z,14.46
2023-05-01T08:40:01.639Z,14.48
2023-05-01T08:41:01.763Z,14.55
2023-05-01T08:42:01.605Z,14.62
2023-05-01T08:43:01.606Z,14.71
2023-05-01T08:44:01.572Z,14.84
2023-05-01T08:45:01.640Z,14.99
2023-05-01T08:46:01.572Z,15.05
2023-05-01T08:47:01.784Z,15.15
2023-05-01T08:48:01.556Z,15.29
2023-05-01T08:49:01.541Z,15.40
2023-05-01T08:50:01.486Z,15.55
2023-05-01T08:51:01.575Z,15.79
2023-05-01T08:52:01.524Z,16.06
2023-05-01T08:53:01.526Z,16.28
2023-05-01T08:54:01.441Z,16.43
2023-05-01T08:55:01.510Z,16.46
2023-05-01T08:56:01.437Z,16.42
2023-05-01T08:57:01.500Z,16.29
2023-05-01T08:58:01.359Z,16.15
2023-05-01T08:59:01.485Z,16.01
2023-05-01T09:00:01.344Z,15.86
2023-05-01T09:01:01.417Z,15.71
2023-05-01T09:02:01.570Z,15.58
2023-05-01T09:03:01.426Z,15.49
2023-05-01T09:04:01.326Z,15.47
2023-05-01T09:05:01.433Z,15.53
2023-05-01T09:06:01.293Z,15.59
2023-05-01T09:07:01.280Z,15.53
2023-05-01T09:08:01.241Z,15.62
2023-05-01T09:09:01.282Z,15.72
2023-05-01T09:10:01.221Z,15.74
2023-05-01T09:11:03.295Z,15.85
2023-05-01T09:12:01.209Z,15.92
2023-05-01T09:13:01.221Z,15.96
2023-05-01T09:14:01.159Z,16.00
2023-05-01T09:15:01.201Z,16.07
2023-05-01T09:16:01.229Z,16.23
2023-05-01T09:17:01.200Z,16.31
2023-05-01T09:18:03.575Z,16.33
2023-05-01T09:19:01.157Z,16.33
2023-05-01T09:20:01.087Z,16.26
2023-05-01T09:21:01.187Z,16.20
2023-05-01T09:22:01.100Z,16.12
2023-05-01T09:23:01.134Z,16.03
2023-05-01T09:24:01.026Z,15.89
2023-05-01T09:25:01.092Z,15.81
2023-05-01T09:26:00.998Z,15.78
2023-05-01T09:27:01.005Z,15.78
2023-05-01T09:28:00.973Z,15.79
2023-05-01T09:29:02.208Z,15.79
2023-05-01T09:30:00.954Z,15.82
2023-05-01T09:31:01.055Z,15.88
2023-05-01T09:32:00.984Z,15.88
2023-05-01T09:33:01.127Z,15.90
2023-05-01T09:34:01.004Z,15.93
2023-05-01T09:35:01.022Z,15.95
2023-05-01T09:36:00.867Z,15.92
2023-05-01T09:37:00.876Z,15.91
2023-05-01T09:38:00.836Z,15.98
2023-05-01T09:39:00.913Z,16.07
2023-05-01T09:40:00.816Z,16.19
2023-05-01T09:41:00.851Z,16.30
2023-05-01T09:42:00.794Z,16.40
2023-05-01T09:43:00.804Z,16.54
2023-05-01T09:44:00.743Z,16.66
2023-05-01T09:45:00.844Z,16.73
2023-05-01T09:46:00.775Z,16.73
2023-05-01T09:47:00.808Z,16.67
2023-05-01T09:48:00.714Z,16.57
2023-05-01T09:49:00.743Z,16.46
2023-05-01T09:50:00.664Z,16.38
2023-05-01T09:51:00.777Z,16.32
2023-05-01T09:52:00.643Z,16.35
2023-05-01T09:53:00.933Z,16.43
2023-05-01T09:54:00.634Z,16.50
2023-05-01T09:55:00.727Z,16.58
2023-05-01T09:56:00.597Z,16.66
2023-05-01T09:57:01.629Z,16.70
2023-05-01T09:58:00.569Z,16.72
2023-05-01T09:59:00.684Z,16.71
2023-05-01T10:00:00.538Z,16.70
2023-05-01T10:01:00.679Z,16.72
2023-05-01T10:02:00.571Z,16.70
2023-05-01T10:03:00.672Z,16.63
2023-05-01T10:04:00.541Z,16.58
2023-05-01T10:05:00.514Z,16.53
2023-05-01T10:06:00.512Z,16.52
2023-05-01T10:07:00.529Z,16.55
2023-05-01T10:08:00.441Z,16.62
2023-05-01T10:09:00.484Z,16.70
2023-05-01T10:10:01.713Z,16.70
2023-05-01T10:11:00.453Z,16.68
2023-05-01T10:12:00.371Z,16.65
2023-05-01T10:13:00.437Z,16.70
2023-05-01T10:14:00.371Z,16.85
2023-05-01T10:15:05.436Z,16.97
2023-05-01T10:16:01.431Z,17.04
2023-05-01T10:17:00.407Z,17.06
2023-05-01T10:18:00.356Z,17.06
2023-05-01T10:19:02.265Z,17.07
2023-05-01T10:20:00.268Z,17.07
2023-05-01T10:21:00.269Z,17.07
2023-05-01T10:22:00.315Z,17.09
2023-05-01T10:23:00.301Z,17.11
2023-05-01T10:24:00.209Z,17.14
2023-05-01T10:25:00.296Z,17.21
2023-05-01T10:26:00.842Z,17.27
2023-05-01T10:27:00.235Z,17.33
2023-05-01T10:28:00.166Z,17.41
2023-05-01T10:29:00.219Z,17.52
2023-05-01T10:30:00.146Z,17.62
2023-05-01T10:31:00.211Z,17.74
2023-05-01T10:32:00.179Z,17.84
2023-05-01T10:33:00.217Z,17.89
2023-05-01T10:34:00.089Z,17.86
2023-05-01T10:35:00.192Z,17.81
2023-05-01T10:36:00.047Z,17.76
2023-05-01T10:37:00.067Z,17.75
2023-05-01T10:38:00.019Z,17.78
2023-05-01T10:39:00.129Z,17.81
2023-05-01T10:40:00.042Z,17.84
2023-05-01T10:41:00.002Z,17.83
2023-05-01T10:41:59.971Z,17.84
2023-05-01T10:43:00.057Z,17.89
2023-05-01T10:43:59.946Z,17.98
2023-05-01T10:45:00.030Z,18.09
2023-05-01T10:45:59.952Z,18.18
2023-05-01T10:46:59.956Z,18.26
2023-05-01T10:48:00.110Z,18.33
2023-05-01T10:48:59.963Z,18.38
2023-05-01T10:50:00.154Z,18.41
2023-05-01T10:51:01.968Z,18.43
2023-05-01T10:51:59.877Z,18.45
2023-05-01T10:52:59.882Z,18.45
2023-05-01T10:53:59.800Z,18.45
2023-05-01T10:54:59.910Z,18.45
2023-05-01T10:55:59.768Z,18.46
2023-05-01T10:56:59.820Z,18.48
2023-05-01T10:57:59.780Z,18.50
2023-05-01T10:58:59.819Z,18.52
2023-05-01T10:59:59.719Z,18.54
2023-05-01T11:00:59.883Z,18.56
2023-05-01T11:02:00.078Z,18.58
2023-05-01T11:02:59.811Z,18.61
2023-05-01T11:03:59.718Z,18.64
2023-05-01T11:05:00.109Z,18.66
2023-05-01T11:05:59.749Z,18.64
2023-05-01T11:06:59.742Z,18.60
2023-05-01T11:07:59.619Z,18.59
2023-05-01T11:08:59.739Z,18.61
2023-05-01T11:09:59.651Z,18.63
2023-05-01T11:10:59.610Z,18.67
2023-05-01T11:11:59.577Z,18.71
2023-05-01T11:13:00.653Z,18.75
2023-05-01T11:13:59.536Z,18.78
2023-05-01T11:14:59.591Z,18.83
2023-05-01T11:15:59.574Z,18.88
2023-05-01T11:16:59.559Z,18.92
2023-05-01T11:17:59.589Z,18.95
2023-05-01T11:18:59.578Z,19.00
2023-05-01T11:19:59.581Z,19.04
2023-05-01T11:20:59.463Z,19.06
2023-05-01T11:21:59.463Z,19.12
2023-05-01T11:22:59.493Z,19.20
2023-05-01T11:23:59.404Z,19.24
2023-05-01T11:24:59.770Z,19.28
2023-05-01T11:25:59.468Z,19.30
2023-05-01T11:26:59.427Z,19.33
2023-05-01T11:27:59.379Z,19.34
2023-05-01T11:28:59.456Z,19.33
2023-05-01T11:29:59.324Z,19.34
2023-05-01T11:30:59.596Z,19.35
2023-05-01T11:31:59.306Z,19.36
2023-05-01T11:32:59.427Z,19.35
2023-05-01T11:33:59.527Z,19.37
2023-05-01T11:34:59.461Z,19.39
2023-05-01T11:35:59.244Z,19.40
2023-05-01T11:36:59.289Z,19.40
2023-05-01T11:37:59.212Z,19.38
2023-05-01T11:38:59.304Z,19.37
2023-05-01T11:39:59.204Z,19.38
2023-05-01T11:40:59.205Z,19.41
2023-05-01T11:41:59.182Z,19.45
2023-05-01T11:42:59.219Z,19.51
2023-05-01T11:43:59.130Z,19.64
2023-05-01T11:44:59.137Z,19.73
2023-05-01T11:45:59.181Z,19.78
2023-05-01T11:46:59.280Z,19.76
2023-05-01T11:48:00.550Z,19.75
2023-05-01T11:48:59.064Z,19.76
2023-05-01T11:50:00.133Z,19.78
2023-05-01T11:50:59.026Z,19.79
2023-05-01T11:51:59.177Z,19.79
2023-05-01T11:52:59.009Z,19.79
2023-05-01T11:53:59.104Z,19.80
2023-05-01T11:54:59.157Z,19.80
2023-05-01T11:55:59.009Z,19.79
2023-05-01T11:56:58.956Z,19.79
2023-05-01T11:57:59.084Z,19.78
2023-05-01T11:58:58.938Z,19.76
2023-05-01T11:59:58.940Z,19.73
2023-05-01T12:00:58.927Z,19.71
2023-05-01T12:01:58.953Z,19.71
2023-05-01T12:02:58.984Z,19.73
2023-05-01T12:03:58.995Z,19.74
2023-05-01T12:04:59.275Z,19.74
2023-05-01T12:05:58.937Z,19.78
2023-05-01T12:06:58.836Z,19.83
2023-05-01T12:07:58.912Z,19.87
2023-05-01T12:08:58.794Z,19.92
2023-05-01T12:09:58.875Z,19.94
2023-05-01T12:10:58.804Z,19.94
2023-05-01T12:11:58.827Z,19.96
2023-05-01T12:12:58.892Z,20.02
2023-05-01T12:13:58.860Z,20.07
2023-05-01T12:14:59.001Z,20.13
2023-05-01T12:15:58.909Z,20.15
2023-05-01T12:16:58.774Z,20.12
2023-05-01T12:17:58.814Z,20.08
2023-05-01T12:18:58.675Z,20.04
2023-05-01T12:19:58.673Z,20.04
2023-05-01T12:20:58.651Z,20.07
2023-05-01T12:21:59.673Z,20.09
2023-05-01T12:22:58.623Z,20.12
2023-05-01T12:23:58.704Z,20.14
2023-05-01T12:24:58.887Z,20.17
2023-05-01T12:25:58.649Z,20.22
2023-05-01T12:26:58.567Z,20.31
2023-05-01T12:27:58.580Z,20.35
2023-05-01T12:28:58.544Z,20.41
2023-05-01T12:29:58.543Z,20.45
2023-05-01T12:30:58.502Z,20.46
2023-05-01T12:31:58.592Z,20.43
2023-05-01T12:32:58.495Z,20.38
2023-05-01T12:33:58.622Z,20.35
2023-05-01T12:34:58.928Z,20.32
2023-05-01T12:35:58.484Z,20.25
2023-05-01T12:36:58.431Z,20.20
2023-05-01T12:37:58.519Z,20.17
2023-05-01T12:38:58.394Z,20.15
2023-05-01T12:39:58.475Z,20.14
2023-05-01T12:40:58.387Z,20.13
2023-05-01T12:41:58.437Z,20.09
2023-05-01T12:42:58.404Z,20.07
2023-05-01T12:43:58.453Z,20.09
2023-05-01T12:44:58.778Z,20.10
2023-05-01T12:45:58.487Z,20.11
2023-05-01T12:46:58.398Z,20.15
2023-05-01T12:47:58.486Z,20.18
2023-05-01T12:48:58.258Z,20.24
2023-05-01T12:49:58.609Z,20.27
2023-05-01T12:50:58.266Z,20.31
2023-05-01T12:51:58.356Z,20.35
2023-05-01T12:52:58.203Z,20.42
2023-05-01T12:53:58.292Z,20.47
2023-05-01T12:54:58.546Z,20.51
2023-05-01T12:55:58.223Z,20.53
2023-05-01T12:56:58.143Z,20.52
2023-05-01T12:57:58.178Z,20.48
2023-05-01T12:58:58.129Z,20.48
2023-05-01T12:59:58.342Z,20.54
2023-05-01T13:00:58.087Z,20.58
2023-05-01T13:01:58.230Z,20.60
2023-05-01T13:02:58.098Z,20.57
2023-05-01T13:03:58.308Z,20.55
2023-05-01T13:04:58.041Z,20.57
2023-05-01T13:05:58.183Z,20.60
2023-05-01T13:06:58.026Z,20.63
2023-05-01T13:07:58.094Z,20.68